sensor_id;sensor_type;location;lat;lon;timestamp;temperature;humidity
5901;DHT22;2976;49.764;9.796;2023-03-14T00:00:33;9.20;99.90
5901;DHT22;2976;49.764;9.796;2023-03-14T00:02:59;9.20;99.90
5901;DHT22;2976;49.764;9.796;2023-03-14T00:05:24;9.30;99.90
5901;DHT22;2976;49.764;9.796;2023-03-14T00:07:50;9.20;99.90
5901;DHT22;2976;49.764;9.796;2023-03-14T00:10:16;9.20;99.90
5901;DHT22;2976;49.764;9.796;2023-03-14T00:12:42;9.20;99.90
5901;DHT22;2976;49.764;9.796;2023-03-14T00:15:09;9.20;99.90
5901;DHT22;2976;49.764;9.796;2023-03-14T00:17:35;9.20;99.90
5901;DHT22;2976;49.764;9.796;2023-03-14T00:20:01;9.20;99.90
5901;DHT22;2976;49.764;9.796;2023-03-14T00:22:34;9.30;99.90
5901;DHT22;2976;49.764;9.796;2023-03-14T00:24:59;9.20;99.90
5901;DHT22;2976;49.764;9.796;2023-03-14T00:27:25;9.20;99.90
5901;DHT22;2976;49.764;9.796;2023-03-14T00:29:50;9.30;99.90
5901;DHT22;2976;49.764;9.796;2023-03-14T00:32:16;9.40;99.90
5901;DHT22;2976;49.764;9.796;2023-03-14T00:34:41;9.40;99.90
5901;DHT22;2976;49.764;9.796;2023-03-14T00:37:07;9.40;99.90
5901;DHT22;2976;49.764;9.796;2023-03-14T00:39:32;9.40;99.90
5901;DHT22;2976;49.764;9.796;2023-03-14T00:41:58;9.40;99.90
5901;DHT22;2976;49.764;9.796;2023-03-14T00:44:23;9.40;99.90
5901;DHT22;2976;49.764;9.796;2023-03-14T00:46:50;9.40;99.90
5901;DHT22;2976;49.764;9.796;2023-03-14T00:49:15;9.40;99.90
5901;DHT22;2976;49.764;9.796;2023-03-14T00:51:41;9.40;99.90
5901;DHT22;2976;49.764;9.796;2023-03-14T00:54:06;9.40;99.90
5901;DHT22;2976;49.764;9.796;2023-03-14T00:56:32;9.40;99.90
5901;DHT22;2976;49.764;9.796;2023-03-14T00:58:58;9.40;99.90
5901;DHT22;2976;49.764;9.796;2023-03-14T01:01:23;9.30;99.90
5901;DHT22;2976;49.764;9.796;2023-03-14T01:03:54;9.40;99.90
5901;DHT22;2976;49.764;9.796;2023-03-14T01:06:23;9.40;99.90
5901;DHT22;2976;49.764;9.796;2023-03-14T01:08:49;9.40;99.90
5901;DHT22;2976;49.764;9.796;2023-03-14T01:11:17;9.40;99.90
5901;DHT22;2976;49.764;9.796;2023-03-14T01:13:43;9.40;99.90
5901;DHT22;2976;49.764;9.796;2023-03-14T01:16:10;9.40;99.90
5901;DHT22;2976;49.764;9.796;2023-03-14T01:18:37;9.40;99.90
5901;DHT22;2976;49.764;9.796;2023-03-14T01:21:08;9.30;99.90
5901;DHT22;2976;49.764;9.796;2023-03-14T01:23:34;9.30;99.90
5901;DHT22;2976;49.764;9.796;2023-03-14T01:26:00;9.30;99.90
5901;DHT22;2976;49.764;9.796;2023-03-14T01:28:25;9.30;99.90
5901;DHT22;2976;49.764;9.796;2023-03-14T01:30:50;9.30;99.90
5901;DHT22;2976;49.764;9.796;2023-03-14T01:33:16;9.30;99.90
5901;DHT22;2976;49.764;9.796;2023-03-14T01:35:41;9.30;99.90
5901;DHT22;2976;49.764;9.796;2023-03-14T01:38:07;9.30;99.90
5901;DHT22;2976;49.764;9.796;2023-03-14T01:40:32;9.30;99.90
5901;DHT22;2976;49.764;9.796;2023-03-14T01:43:06;9.20;99.90
5901;DHT22;2976;49.764;9.796;2023-03-14T01:48:36;9.20;99.90
5901;DHT22;2976;49.764;9.796;2023-03-14T01:51:05;9.20;99.90
5901;DHT22;2976;49.764;9.796;2023-03-14T01:53:31;9.10;99.90
5901;DHT22;2976;49.764;9.796;2023-03-14T01:55:57;9.10;99.90
5901;DHT22;2976;49.764;9.796;2023-03-14T01:58:24;9.00;99.90
5901;DHT22;2976;49.764;9.796;2023-03-14T02:00:53;8.90;99.90
5901;DHT22;2976;49.764;9.796;2023-03-14T02:03:20;9.00;99.90
5901;DHT22;2976;49.764;9.796;2023-03-14T02:05:47;9.00;99.90
5901;DHT22;2976;49.764;9.796;2023-03-14T02:08:15;9.00;99.90
5901;DHT22;2976;49.764;9.796;2023-03-14T02:10:45;9.00;99.90
5901;DHT22;2976;49.764;9.796;2023-03-14T02:13:11;9.00;99.90
5901;DHT22;2976;49.764;9.796;2023-03-14T02:15:38;9.00;99.90
5901;DHT22;2976;49.764;9.796;2023-03-14T02:18:05;8.90;99.90
5901;DHT22;2976;49.764;9.796;2023-03-14T02:23:10;8.90;99.90
5901;DHT22;2976;49.764;9.796;2023-03-14T02:25:47;8.90;99.90
5901;DHT22;2976;49.764;9.796;2023-03-14T02:28:13;9.00;99.90
5901;DHT22;2976;49.764;9.796;2023-03-14T02:30:39;9.00;99.90
5901;DHT22;2976;49.764;9.796;2023-03-14T02:33:08;9.00;99.90
5901;DHT22;2976;49.764;9.796;2023-03-14T02:35:56;8.90;99.90
5901;DHT22;2976;49.764;9.796;2023-03-14T02:38:30;9.00;99.90
5901;DHT22;2976;49.764;9.796;2023-03-14T02:40:56;9.00;99.90
5901;DHT22;2976;49.764;9.796;2023-03-14T02:43:22;9.10;99.90
5901;DHT22;2976;49.764;9.796;2023-03-14T02:45:49;9.10;99.90
5901;DHT22;2976;49.764;9.796;2023-03-14T02:48:18;9.00;99.90
5901;DHT22;2976;49.764;9.796;2023-03-14T02:50:47;9.00;99.90
5901;DHT22;2976;49.764;9.796;2023-03-14T02:53:17;8.90;99.90
5901;DHT22;2976;49.764;9.796;2023-03-14T02:55:47;8.90;99.90
5901;DHT22;2976;49.764;9.796;2023-03-14T02:58:13;8.90;99.90
5901;DHT22;2976;49.764;9.796;2023-03-14T03:00:38;8.80;99.90
5901;DHT22;2976;49.764;9.796;2023-03-14T03:03:04;8.80;99.90
5901;DHT22;2976;49.764;9.796;2023-03-14T03:05:31;8.70;99.90
5901;DHT22;2976;49.764;9.796;2023-03-14T03:07:57;8.70;99.90
5901;DHT22;2976;49.764;9.796;2023-03-14T03:10:22;8.70;99.90
5901;DHT22;2976;49.764;9.796;2023-03-14T03:12:48;8.70;99.90
5901;DHT22;2976;49.764;9.796;2023-03-14T03:15:14;8.70;99.90
5901;DHT22;2976;49.764;9.796;2023-03-14T03:17:39;8.70;99.90
5901;DHT22;2976;49.764;9.796;2023-03-14T03:20:05;8.60;99.90
5901;DHT22;2976;49.764;9.796;2023-03-14T03:22:34;8.60;99.90
5901;DHT22;2976;49.764;9.796;2023-03-14T03:24:59;8.60;99.90
5901;DHT22;2976;49.764;9.796;2023-03-14T03:27:25;8.70;99.90
5901;DHT22;2976;49.764;9.796;2023-03-14T03:29:50;8.70;99.90
5901;DHT22;2976;49.764;9.796;2023-03-14T03:32:16;8.60;99.90
5901;DHT22;2976;49.764;9.796;2023-03-14T03:34:41;8.70;99.90
5901;DHT22;2976;49.764;9.796;2023-03-14T03:37:07;8.70;99.90
5901;DHT22;2976;49.764;9.796;2023-03-14T03:39:32;8.70;99.90
5901;DHT22;2976;49.764;9.796;2023-03-14T03:41:58;8.80;99.90
5901;DHT22;2976;49.764;9.796;2023-03-14T03:44:24;8.90;99.90
5901;DHT22;2976;49.764;9.796;2023-03-14T03:46:49;8.90;99.90
5901;DHT22;2976;49.764;9.796;2023-03-14T03:49:14;8.90;99.90
5901;DHT22;2976;49.764;9.796;2023-03-14T03:51:40;8.90;99.90
5901;DHT22;2976;49.764;9.796;2023-03-14T03:54:06;9.00;99.90
5901;DHT22;2976;49.764;9.796;2023-03-14T03:56:31;9.00;99.90
5901;DHT22;2976;49.764;9.796;2023-03-14T03:58:57;9.00;99.90
5901;DHT22;2976;49.764;9.796;2023-03-14T04:01:22;9.00;99.90
5901;DHT22;2976;49.764;9.796;2023-03-14T04:03:48;9.00;99.90
5901;DHT22;2976;49.764;9.796;2023-03-14T04:06:13;9.00;99.90
5901;DHT22;2976;49.764;9.796;2023-03-14T04:08:39;9.00;99.90
5901;DHT22;2976;49.764;9.796;2023-03-14T04:11:06;9.00;99.90
5901;DHT22;2976;49.764;9.796;2023-03-14T04:13:32;9.00;99.90
5901;DHT22;2976;49.764;9.796;2023-03-14T04:15:58;9.00;99.90
5901;DHT22;2976;49.764;9.796;2023-03-14T04:18:24;8.90;99.90
5901;DHT22;2976;49.764;9.796;2023-03-14T04:20:56;8.90;99.90
5901;DHT22;2976;49.764;9.796;2023-03-14T04:23:23;8.90;99.90
5901;DHT22;2976;49.764;9.796;2023-03-14T04:25:50;8.90;99.90
5901;DHT22;2976;49.764;9.796;2023-03-14T04:28:15;8.90;99.90
5901;DHT22;2976;49.764;9.796;2023-03-14T04:30:41;8.90;99.90
5901;DHT22;2976;49.764;9.796;2023-03-14T04:33:06;8.90;99.90
5901;DHT22;2976;49.764;9.796;2023-03-14T04:35:32;8.90;99.90
5901;DHT22;2976;49.764;9.796;2023-03-14T04:37:58;8.90;99.90
5901;DHT22;2976;49.764;9.796;2023-03-14T04:40:25;9.00;99.90
5901;DHT22;2976;49.764;9.796;2023-03-14T04:42:50;8.90;99.90
5901;DHT22;2976;49.764;9.796;2023-03-14T04:45:16;9.00;99.90
5901;DHT22;2976;49.764;9.796;2023-03-14T04:47:42;9.00;99.90
5901;DHT22;2976;49.764;9.796;2023-03-14T04:50:08;9.00;99.90
5901;DHT22;2976;49.764;9.796;2023-03-14T04:52:34;9.00;99.90
5901;DHT22;2976;49.764;9.796;2023-03-14T04:54:59;9.00;99.90
5901;DHT22;2976;49.764;9.796;2023-03-14T04:57:25;8.90;99.90
5901;DHT22;2976;49.764;9.796;2023-03-14T04:59:51;8.80;99.90
5901;DHT22;2976;49.764;9.796;2023-03-14T05:02:16;8.90;99.90
5901;DHT22;2976;49.764;9.796;2023-03-14T05:04:42;8.90;99.90
5901;DHT22;2976;49.764;9.796;2023-03-14T05:07:07;8.80;99.90
5901;DHT22;2976;49.764;9.796;2023-03-14T05:09:33;8.80;99.90
5901;DHT22;2976;49.764;9.796;2023-03-14T05:11:58;8.80;99.90
5901;DHT22;2976;49.764;9.796;2023-03-14T05:14:24;8.80;99.90
5901;DHT22;2976;49.764;9.796;2023-03-14T05:16:49;8.80;99.90
5901;DHT22;2976;49.764;9.796;2023-03-14T05:19:15;8.70;99.90
5901;DHT22;2976;49.764;9.796;2023-03-14T05:21:40;8.70;99.90
5901;DHT22;2976;49.764;9.796;2023-03-14T05:24:06;8.70;99.90
5901;DHT22;2976;49.764;9.796;2023-03-14T05:26:31;8.70;99.90
5901;DHT22;2976;49.764;9.796;2023-03-14T05:28:57;8.70;99.90
5901;DHT22;2976;49.764;9.796;2023-03-14T05:31:22;8.80;99.90
5901;DHT22;2976;49.764;9.796;2023-03-14T05:33:48;8.80;99.90
5901;DHT22;2976;49.764;9.796;2023-03-14T05:36:14;8.80;99.90
5901;DHT22;2976;49.764;9.796;2023-03-14T05:38:39;8.80;99.90
5901;DHT22;2976;49.764;9.796;2023-03-14T05:41:05;8.80;99.90
5901;DHT22;2976;49.764;9.796;2023-03-14T05:43:30;8.80;99.90
5901;DHT22;2976;49.764;9.796;2023-03-14T05:45:56;8.80;99.90
5901;DHT22;2976;49.764;9.796;2023-03-14T05:48:21;8.80;99.90
5901;DHT22;2976;49.764;9.796;2023-03-14T05:50:47;8.70;99.90
5901;DHT22;2976;49.764;9.796;2023-03-14T05:53:13;8.70;99.90
5901;DHT22;2976;49.764;9.796;2023-03-14T05:55:39;8.70;99.90
5901;DHT22;2976;49.764;9.796;2023-03-14T05:58:05;8.60;99.90
5901;DHT22;2976;49.764;9.796;2023-03-14T06:00:31;8.60;99.90
5901;DHT22;2976;49.764;9.796;2023-03-14T06:02:56;8.60;99.90
5901;DHT22;2976;49.764;9.796;2023-03-14T06:05:22;8.60;99.90
5901;DHT22;2976;49.764;9.796;2023-03-14T06:07:47;8.70;99.90
5901;DHT22;2976;49.764;9.796;2023-03-14T06:10:13;8.80;99.90
5901;DHT22;2976;49.764;9.796;2023-03-14T06:12:38;8.80;99.90
5901;DHT22;2976;49.764;9.796;2023-03-14T06:15:04;8.80;99.90
5901;DHT22;2976;49.764;9.796;2023-03-14T06:17:30;8.80;99.90
5901;DHT22;2976;49.764;9.796;2023-03-14T06:19:55;8.80;99.90
5901;DHT22;2976;49.764;9.796;2023-03-14T06:22:21;8.80;99.90
5901;DHT22;2976;49.764;9.796;2023-03-14T06:24:46;8.80;99.90
5901;DHT22;2976;49.764;9.796;2023-03-14T06:27:12;8.90;99.90
5901;DHT22;2976;49.764;9.796;2023-03-14T06:29:37;8.80;99.90
5901;DHT22;2976;49.764;9.796;2023-03-14T06:32:03;8.90;99.90
5901;DHT22;2976;49.764;9.796;2023-03-14T06:34:30;8.90;99.90
5901;DHT22;2976;49.764;9.796;2023-03-14T06:36:56;8.90;99.90
5901;DHT22;2976;49.764;9.796;2023-03-14T06:39:21;8.90;99.90
5901;DHT22;2976;49.764;9.796;2023-03-14T06:41:47;9.00;99.90
5901;DHT22;2976;49.764;9.796;2023-03-14T06:44:12;9.10;99.90
5901;DHT22;2976;49.764;9.796;2023-03-14T06:46:38;9.20;99.90
5901;DHT22;2976;49.764;9.796;2023-03-14T06:49:03;9.20;99.90
5901;DHT22;2976;49.764;9.796;2023-03-14T06:51:29;9.20;99.90
5901;DHT22;2976;49.764;9.796;2023-03-14T06:53:54;9.20;99.90
5901;DHT22;2976;49.764;9.796;2023-03-14T06:56:20;9.20;99.90
5901;DHT22;2976;49.764;9.796;2023-03-14T06:58:45;9.20;99.90
5901;DHT22;2976;49.764;9.796;2023-03-14T07:01:21;9.10;99.90
5901;DHT22;2976;49.764;9.796;2023-03-14T07:03:47;9.10;99.90
5901;DHT22;2976;49.764;9.796;2023-03-14T07:06:13;9.20;99.90
5901;DHT22;2976;49.764;9.796;2023-03-14T07:08:38;9.20;99.90
5901;DHT22;2976;49.764;9.796;2023-03-14T07:11:04;9.20;99.90
5901;DHT22;2976;49.764;9.796;2023-03-14T07:13:30;9.30;99.90
5901;DHT22;2976;49.764;9.796;2023-03-14T07:15:56;9.30;99.90
5901;DHT22;2976;49.764;9.796;2023-03-14T07:18:21;9.30;99.90
5901;DHT22;2976;49.764;9.796;2023-03-14T07:20:47;9.30;99.90
5901;DHT22;2976;49.764;9.796;2023-03-14T07:23:13;9.30;99.90
5901;DHT22;2976;49.764;9.796;2023-03-14T07:25:38;9.30;99.90
5901;DHT22;2976;49.764;9.796;2023-03-14T07:28:04;9.30;99.90
5901;DHT22;2976;49.764;9.796;2023-03-14T07:30:29;9.30;99.90
5901;DHT22;2976;49.764;9.796;2023-03-14T07:32:55;9.30;99.90
5901;DHT22;2976;49.764;9.796;2023-03-14T07:35:20;9.40;99.90
5901;DHT22;2976;49.764;9.796;2023-03-14T07:37:46;9.40;99.90
5901;DHT22;2976;49.764;9.796;2023-03-14T07:40:12;9.40;99.90
5901;DHT22;2976;49.764;9.796;2023-03-14T07:42:41;9.40;99.90
5901;DHT22;2976;49.764;9.796;2023-03-14T07:45:07;9.40;99.90
5901;DHT22;2976;49.764;9.796;2023-03-14T07:47:33;9.40;99.90
5901;DHT22;2976;49.764;9.796;2023-03-14T07:49:58;9.40;99.90
5901;DHT22;2976;49.764;9.796;2023-03-14T07:52:24;9.40;99.90
5901;DHT22;2976;49.764;9.796;2023-03-14T07:54:49;9.50;99.90
5901;DHT22;2976;49.764;9.796;2023-03-14T07:57:15;9.60;99.90
5901;DHT22;2976;49.764;9.796;2023-03-14T07:59:41;9.70;99.90
5901;DHT22;2976;49.764;9.796;2023-03-14T08:02:10;9.80;99.90
5901;DHT22;2976;49.764;9.796;2023-03-14T08:04:38;9.90;99.90
5901;DHT22;2976;49.764;9.796;2023-03-14T08:07:03;10.00;99.90
5901;DHT22;2976;49.764;9.796;2023-03-14T08:09:29;10.00;99.90
5901;DHT22;2976;49.764;9.796;2023-03-14T08:11:54;10.00;99.90
5901;DHT22;2976;49.764;9.796;2023-03-14T08:14:20;10.00;99.90
5901;DHT22;2976;49.764;9.796;2023-03-14T08:16:46;10.00;99.90
5901;DHT22;2976;49.764;9.796;2023-03-14T08:19:11;10.10;99.90
5901;DHT22;2976;49.764;9.796;2023-03-14T08:21:37;10.10;99.90
5901;DHT22;2976;49.764;9.796;2023-03-14T08:24:02;10.10;99.90
5901;DHT22;2976;49.764;9.796;2023-03-14T08:26:28;10.00;99.90
5901;DHT22;2976;49.764;9.796;2023-03-14T08:28:53;9.90;99.90
5901;DHT22;2976;49.764;9.796;2023-03-14T08:31:19;9.90;99.90
5901;DHT22;2976;49.764;9.796;2023-03-14T08:33:45;10.40;99.90
5901;DHT22;2976;49.764;9.796;2023-03-14T08:36:10;10.80;99.90
5901;DHT22;2976;49.764;9.796;2023-03-14T08:38:36;11.30;99.90
5901;DHT22;2976;49.764;9.796;2023-03-14T08:41:02;11.60;99.90
5901;DHT22;2976;49.764;9.796;2023-03-14T08:43:29;11.40;99.90
5901;DHT22;2976;49.764;9.796;2023-03-14T08:45:58;11.20;99.90
5901;DHT22;2976;49.764;9.796;2023-03-14T08:48:24;11.30;99.90
5901;DHT22;2976;49.764;9.796;2023-03-14T08:50:49;11.30;99.90
5901;DHT22;2976;49.764;9.796;2023-03-14T08:53:15;11.30;99.90
5901;DHT22;2976;49.764;9.796;2023-03-14T08:55:40;11.00;99.90
5901;DHT22;2976;49.764;9.796;2023-03-14T08:58:06;10.80;99.90
5901;DHT22;2976;49.764;9.796;2023-03-14T09:00:31;10.80;99.90
5901;DHT22;2976;49.764;9.796;2023-03-14T09:02:57;10.70;99.90
5901;DHT22;2976;49.764;9.796;2023-03-14T09:05:22;10.70;99.90
5901;DHT22;2976;49.764;9.796;2023-03-14T09:07:48;10.70;99.90
5901;DHT22;2976;49.764;9.796;2023-03-14T09:10:13;10.70;99.90
5901;DHT22;2976;49.764;9.796;2023-03-14T09:12:39;10.80;99.90
5901;DHT22;2976;49.764;9.796;2023-03-14T09:15:05;10.90;99.90
5901;DHT22;2976;49.764;9.796;2023-03-14T09:17:30;10.90;99.90
5901;DHT22;2976;49.764;9.796;2023-03-14T09:19:56;11.00;99.90
5901;DHT22;2976;49.764;9.796;2023-03-14T09:22:22;11.00;99.90
5901;DHT22;2976;49.764;9.796;2023-03-14T09:24:47;10.90;99.90
5901;DHT22;2976;49.764;9.796;2023-03-14T09:27:13;11.00;99.90
5901;DHT22;2976;49.764;9.796;2023-03-14T09:29:38;11.00;99.90
5901;DHT22;2976;49.764;9.796;2023-03-14T09:32:04;11.20;99.90
5901;DHT22;2976;49.764;9.796;2023-03-14T09:34:30;11.30;99.90
5901;DHT22;2976;49.764;9.796;2023-03-14T09:36:55;11.70;99.90
5901;DHT22;2976;49.764;9.796;2023-03-14T09:39:22;12.00;99.90
5901;DHT22;2976;49.764;9.796;2023-03-14T09:41:49;11.90;99.90
5901;DHT22;2976;49.764;9.796;2023-03-14T09:44:30;11.90;99.90
5901;DHT22;2976;49.764;9.796;2023-03-14T09:47:00;11.60;99.90
5901;DHT22;2976;49.764;9.796;2023-03-14T09:49:41;11.40;99.90
5901;DHT22;2976;49.764;9.796;2023-03-14T09:52:20;11.20;99.90
5901;DHT22;2976;49.764;9.796;2023-03-14T09:54:53;11.20;99.90
5901;DHT22;2976;49.764;9.796;2023-03-14T09:57:23;11.20;99.90
5901;DHT22;2976;49.764;9.796;2023-03-14T09:59:51;11.30;99.90
5901;DHT22;2976;49.764;9.796;2023-03-14T10:02:23;11.40;99.90
5901;DHT22;2976;49.764;9.796;2023-03-14T10:04:51;11.50;99.90
5901;DHT22;2976;49.764;9.796;2023-03-14T10:07:28;11.40;99.90
5901;DHT22;2976;49.764;9.796;2023-03-14T10:09:54;11.40;99.90
5901;DHT22;2976;49.764;9.796;2023-03-14T10:12:20;11.30;99.90
5901;DHT22;2976;49.764;9.796;2023-03-14T10:14:55;11.10;99.90
5901;DHT22;2976;49.764;9.796;2023-03-14T10:17:20;11.20;99.90
5901;DHT22;2976;49.764;9.796;2023-03-14T10:19:57;11.20;99.90
5901;DHT22;2976;49.764;9.796;2023-03-14T10:22:29;11.20;99.90
5901;DHT22;2976;49.764;9.796;2023-03-14T10:25:06;11.60;99.90
5901;DHT22;2976;49.764;9.796;2023-03-14T10:27:44;11.80;99.90
5901;DHT22;2976;49.764;9.796;2023-03-14T10:30:34;11.70;99.90
5901;DHT22;2976;49.764;9.796;2023-03-14T10:33:11;12.00;99.90
5901;DHT22;2976;49.764;9.796;2023-03-14T10:35:37;11.90;99.90
5901;DHT22;2976;49.764;9.796;2023-03-14T10:38:03;11.80;99.90
5901;DHT22;2976;49.764;9.796;2023-03-14T10:40:41;11.80;99.90
5901;DHT22;2976;49.764;9.796;2023-03-14T10:43:16;11.80;99.90
5901;DHT22;2976;49.764;9.796;2023-03-14T10:45:43;11.80;99.90
5901;DHT22;2976;49.764;9.796;2023-03-14T10:48:36;11.90;99.90
5901;DHT22;2976;49.764;9.796;2023-03-14T10:51:18;12.00;99.90
5901;DHT22;2976;49.764;9.796;2023-03-14T10:54:33;12.10;99.90
5901;DHT22;2976;49.764;9.796;2023-03-14T10:56:36;12.00;99.90
5901;DHT22;2976;49.764;9.796;2023-03-14T10:59:03;11.90;99.90
5901;DHT22;2976;49.764;9.796;2023-03-14T11:04:22;11.70;99.90
5901;DHT22;2976;49.764;9.796;2023-03-14T11:06:56;11.70;99.90
5901;DHT22;2976;49.764;9.796;2023-03-14T11:09:25;11.50;99.90
5901;DHT22;2976;49.764;9.796;2023-03-14T11:11:58;11.40;99.90
5901;DHT22;2976;49.764;9.796;2023-03-14T11:14:33;11.20;99.90
5901;DHT22;2976;49.764;9.796;2023-03-14T11:20:01;11.20;99.90
5901;DHT22;2976;49.764;9.796;2023-03-14T11:22:39;11.10;99.90
5901;DHT22;2976;49.764;9.796;2023-03-14T11:25:32;11.20;99.90
5901;DHT22;2976;49.764;9.796;2023-03-14T11:28:14;11.30;99.90
5901;DHT22;2976;49.764;9.796;2023-03-14T11:33:20;11.30;99.90
5901;DHT22;2976;49.764;9.796;2023-03-14T11:36:03;11.40;99.90
5901;DHT22;2976;49.764;9.796;2023-03-14T11:38:48;11.20;99.90
5901;DHT22;2976;49.764;9.796;2023-03-14T11:41:33;11.10;99.90
5901;DHT22;2976;49.764;9.796;2023-03-14T11:44:04;10.90;99.90
5901;DHT22;2976;49.764;9.796;2023-03-14T11:46:45;10.70;99.90
5901;DHT22;2976;49.764;9.796;2023-03-14T11:49:31;10.50;99.90
5901;DHT22;2976;49.764;9.796;2023-03-14T11:52:03;10.30;99.90
5901;DHT22;2976;49.764;9.796;2023-03-14T11:54:42;10.10;99.90
5901;DHT22;2976;49.764;9.796;2023-03-14T11:57:16;10.10;99.90
5901;DHT22;2976;49.764;9.796;2023-03-14T12:10:28;10.00;99.90
5901;DHT22;2976;49.764;9.796;2023-03-14T12:12:53;9.90;99.90
5901;DHT22;2976;49.764;9.796;2023-03-14T12:15:21;9.90;99.90
5901;DHT22;2976;49.764;9.796;2023-03-14T12:17:54;9.80;99.90
5901;DHT22;2976;49.764;9.796;2023-03-14T12:20:22;9.70;99.90
5901;DHT22;2976;49.764;9.796;2023-03-14T12:22:52;9.60;99.90
5901;DHT22;2976;49.764;9.796;2023-03-14T12:25:20;9.60;99.90
5901;DHT22;2976;49.764;9.796;2023-03-14T12:28:03;9.60;99.90
5901;DHT22;2976;49.764;9.796;2023-03-14T12:30:34;9.60;99.90
5901;DHT22;2976;49.764;9.796;2023-03-14T12:35:51;9.60;99.90
5901;DHT22;2976;49.764;9.796;2023-03-14T12:41:28;9.60;99.90
5901;DHT22;2976;49.764;9.796;2023-03-14T12:43:54;9.60;99.90
5901;DHT22;2976;49.764;9.796;2023-03-14T12:46:21;9.50;99.90
5901;DHT22;2976;49.764;9.796;2023-03-14T12:48:47;9.50;99.90
5901;DHT22;2976;49.764;9.796;2023-03-14T12:51:18;9.50;99.90
5901;DHT22;2976;49.764;9.796;2023-03-14T12:56:27;9.50;99.90
5901;DHT22;2976;49.764;9.796;2023-03-14T13:01:33;9.60;99.90
5901;DHT22;2976;49.764;9.796;2023-03-14T13:04:08;9.60;99.90
5901;DHT22;2976;49.764;9.796;2023-03-14T13:06:51;9.70;99.90
5901;DHT22;2976;49.764;9.796;2023-03-14T13:12:14;9.90;99.90
5901;DHT22;2976;49.764;9.796;2023-03-14T13:14:45;9.90;99.90
5901;DHT22;2976;49.764;9.796;2023-03-14T13:17:12;9.90;99.90
5901;DHT22;2976;49.764;9.796;2023-03-14T13:19:39;9.80;99.90
5901;DHT22;2976;49.764;9.796;2023-03-14T13:22:14;9.70;99.90
5901;DHT22;2976;49.764;9.796;2023-03-14T13:24:41;9.60;99.90
5901;DHT22;2976;49.764;9.796;2023-03-14T13:27:19;9.50;99.90
5901;DHT22;2976;49.764;9.796;2023-03-14T13:29:49;9.20;99.90
5901;DHT22;2976;49.764;9.796;2023-03-14T13:32:26;8.50;99.90
5901;DHT22;2976;49.764;9.796;2023-03-14T13:34:55;8.10;99.90
5901;DHT22;2976;49.764;9.796;2023-03-14T13:37:24;7.90;99.90
5901;DHT22;2976;49.764;9.796;2023-03-14T13:39:54;7.70;99.90
5901;DHT22;2976;49.764;9.796;2023-03-14T13:42:21;7.70;99.90
5901;DHT22;2976;49.764;9.796;2023-03-14T13:44:51;7.60;99.90
5901;DHT22;2976;49.764;9.796;2023-03-14T13:47:20;7.50;99.90
5901;DHT22;2976;49.764;9.796;2023-03-14T13:49:46;7.40;99.90
5901;DHT22;2976;49.764;9.796;2023-03-14T13:54:56;7.30;99.90
5901;DHT22;2976;49.764;9.796;2023-03-14T13:57:22;7.30;99.90
5901;DHT22;2976;49.764;9.796;2023-03-14T14:00:06;7.30;99.90
5901;DHT22;2976;49.764;9.796;2023-03-14T14:02:36;7.30;99.90
5901;DHT22;2976;49.764;9.796;2023-03-14T14:05:03;7.30;99.90
5901;DHT22;2976;49.764;9.796;2023-03-14T14:07:29;7.30;99.90
5901;DHT22;2976;49.764;9.796;2023-03-14T14:09:55;7.40;99.90
5901;DHT22;2976;49.764;9.796;2023-03-14T14:12:28;7.40;99.90
5901;DHT22;2976;49.764;9.796;2023-03-14T14:17:36;7.50;99.90
5901;DHT22;2976;49.764;9.796;2023-03-14T14:20:06;7.40;99.90
5901;DHT22;2976;49.764;9.796;2023-03-14T14:22:33;7.30;99.90
5901;DHT22;2976;49.764;9.796;2023-03-14T14:25:00;7.20;99.90
5901;DHT22;2976;49.764;9.796;2023-03-14T14:27:37;7.10;99.90
5901;DHT22;2976;49.764;9.796;2023-03-14T14:30:21;7.10;99.90
5901;DHT22;2976;49.764;9.796;2023-03-14T14:32:50;7.10;99.90
5901;DHT22;2976;49.764;9.796;2023-03-14T14:35:24;7.10;99.90
5901;DHT22;2976;49.764;9.796;2023-03-14T14:37:50;7.30;99.90
5901;DHT22;2976;49.764;9.796;2023-03-14T14:40:29;7.40;99.90
5901;DHT22;2976;49.764;9.796;2023-03-14T14:43:02;7.60;99.90
5901;DHT22;2976;49.764;9.796;2023-03-14T14:45:29;7.60;99.90
5901;DHT22;2976;49.764;9.796;2023-03-14T14:47:58;7.50;99.90
5901;DHT22;2976;49.764;9.796;2023-03-14T14:50:30;7.40;99.90
5901;DHT22;2976;49.764;9.796;2023-03-14T14:53:20;7.30;99.90
5901;DHT22;2976;49.764;9.796;2023-03-14T14:55:50;7.20;99.90
5901;DHT22;2976;49.764;9.796;2023-03-14T14:58:23;6.90;99.90
5901;DHT22;2976;49.764;9.796;2023-03-14T15:00:59;6.70;99.90
5901;DHT22;2976;49.764;9.796;2023-03-14T15:03:28;6.50;99.90
5901;DHT22;2976;49.764;9.796;2023-03-14T15:05:55;6.20;99.90
5901;DHT22;2976;49.764;9.796;2023-03-14T15:08:21;6.10;99.90
5901;DHT22;2976;49.764;9.796;2023-03-14T15:10:46;5.90;99.90
5901;DHT22;2976;49.764;9.796;2023-03-14T15:13:12;5.90;99.90
5901;DHT22;2976;49.764;9.796;2023-03-14T15:15:37;6.00;99.90
5901;DHT22;2976;49.764;9.796;2023-03-14T15:18:14;6.00;99.90
5901;DHT22;2976;49.764;9.796;2023-03-14T15:20:40;6.10;99.90
5901;DHT22;2976;49.764;9.796;2023-03-14T15:23:18;6.10;99.90
5901;DHT22;2976;49.764;9.796;2023-03-14T15:25:44;6.30;99.90
5901;DHT22;2976;49.764;9.796;2023-03-14T15:28:17;6.40;99.90
5901;DHT22;2976;49.764;9.796;2023-03-14T15:30:43;6.60;99.90
5901;DHT22;2976;49.764;9.796;2023-03-14T15:33:09;6.80;99.90
5901;DHT22;2976;49.764;9.796;2023-03-14T15:35:36;6.80;99.90
5901;DHT22;2976;49.764;9.796;2023-03-14T15:38:02;6.80;99.90
5901;DHT22;2976;49.764;9.796;2023-03-14T15:40:28;6.80;99.90
5901;DHT22;2976;49.764;9.796;2023-03-14T15:42:54;6.90;99.90
5901;DHT22;2976;49.764;9.796;2023-03-14T15:45:19;6.90;99.90
5901;DHT22;2976;49.764;9.796;2023-03-14T15:47:45;6.90;99.90
5901;DHT22;2976;49.764;9.796;2023-03-14T15:50:10;6.90;99.90
5901;DHT22;2976;49.764;9.796;2023-03-14T15:52:36;6.80;99.90
5901;DHT22;2976;49.764;9.796;2023-03-14T15:55:02;6.80;99.90
5901;DHT22;2976;49.764;9.796;2023-03-14T15:57:28;6.80;99.90
5901;DHT22;2976;49.764;9.796;2023-03-14T15:59:53;6.90;99.90
5901;DHT22;2976;49.764;9.796;2023-03-14T16:02:19;6.90;99.90
5901;DHT22;2976;49.764;9.796;2023-03-14T16:04:44;6.90;99.90
5901;DHT22;2976;49.764;9.796;2023-03-14T16:07:10;6.90;99.90
5901;DHT22;2976;49.764;9.796;2023-03-14T16:09:36;6.80;99.90
5901;DHT22;2976;49.764;9.796;2023-03-14T16:12:02;6.70;99.90
5901;DHT22;2976;49.764;9.796;2023-03-14T16:14:30;6.70;99.90
5901;DHT22;2976;49.764;9.796;2023-03-14T16:16:55;6.30;99.90
5901;DHT22;2976;49.764;9.796;2023-03-14T16:19:25;5.70;99.90
5901;DHT22;2976;49.764;9.796;2023-03-14T16:21:52;5.30;99.90
5901;DHT22;2976;49.764;9.796;2023-03-14T16:24:17;5.00;99.90
5901;DHT22;2976;49.764;9.796;2023-03-14T16:26:43;4.90;99.90
5901;DHT22;2976;49.764;9.796;2023-03-14T16:29:09;4.90;99.90
5901;DHT22;2976;49.764;9.796;2023-03-14T16:31:35;4.80;99.90
5901;DHT22;2976;49.764;9.796;2023-03-14T16:34:07;4.80;99.90
5901;DHT22;2976;49.764;9.796;2023-03-14T16:36:33;4.80;99.90
5901;DHT22;2976;49.764;9.796;2023-03-14T16:38:59;4.80;99.90
5901;DHT22;2976;49.764;9.796;2023-03-14T16:41:24;4.70;99.90
5901;DHT22;2976;49.764;9.796;2023-03-14T16:43:50;4.70;99.90
5901;DHT22;2976;49.764;9.796;2023-03-14T16:46:19;4.70;99.90
5901;DHT22;2976;49.764;9.796;2023-03-14T16:48:46;4.70;99.90
5901;DHT22;2976;49.764;9.796;2023-03-14T16:51:12;4.80;99.90
5901;DHT22;2976;49.764;9.796;2023-03-14T16:53:38;4.80;99.90
5901;DHT22;2976;49.764;9.796;2023-03-14T16:56:04;4.90;99.90
5901;DHT22;2976;49.764;9.796;2023-03-14T16:58:30;4.90;99.90
5901;DHT22;2976;49.764;9.796;2023-03-14T17:00:56;4.90;99.90
5901;DHT22;2976;49.764;9.796;2023-03-14T17:03:22;4.90;99.90